createdAt,value
2019-05-20T00:00:43.115Z,98971.59
2019-05-20T00:03:45.119Z,98963.91
2019-05-20T00:06:47.068Z,98961.05
2019-05-20T00:09:49.014Z,98960.14
2019-05-20T00:12:50.925Z,98954.83
2019-05-20T00:15:52.941Z,98948.23
2019-05-20T00:18:54.823Z,98946.39
2019-05-20T00:21:56.741Z,98950.75
2019-05-20T00:24:58.854Z,98948.09
2019-05-20T00:28:00.820Z,98944.39
2019-05-20T00:31:02.771Z,98946.45
2019-05-20T00:34:04.738Z,98948.27
2019-05-20T00:37:06.713Z,98948.22
2019-05-20T00:40:10.139Z,98945.81
2019-05-20T00:43:12.072Z,98944.05
2019-05-20T00:46:14.005Z,98948.77
2019-05-20T00:49:16.030Z,98947.25
2019-05-20T00:52:17.934Z,98943.20
2019-05-20T00:55:23.261Z,98941.69
2019-05-20T00:58:25.354Z,98958.30
2019-05-20T01:01:27.343Z,98963.45
2019-05-20T01:04:29.262Z,98942.53
2019-05-20T01:07:31.228Z,98948.55
2019-05-20T01:10:33.156Z,98951.80
2019-05-20T01:13:35.163Z,98942.80
2019-05-20T01:16:37.083Z,98943.24
2019-05-20T01:19:39.001Z,98942.76
2019-05-20T01:22:40.905Z,98937.71
2019-05-20T01:25:42.945Z,98927.55
2019-05-20T01:28:44.887Z,98927.59
2019-05-20T01:31:46.778Z,98918.77
2019-05-20T01:34:49.155Z,98918.92
2019-05-20T01:37:51.116Z,98914.06
2019-05-20T01:40:53.073Z,98924.16
2019-05-20T01:43:55.069Z,98924.75
2019-05-20T01:46:56.985Z,98931.54
2019-05-20T01:49:58.917Z,98921.25
2019-05-20T01:53:00.872Z,98919.75
2019-05-20T01:56:03.232Z,98911.72
2019-05-20T01:59:05.764Z,98908.51
2019-05-20T02:02:07.735Z,98903.78
2019-05-20T02:05:09.943Z,98908.95
2019-05-20T02:08:11.858Z,98906.38
2019-05-20T02:11:13.779Z,98916.41
2019-05-20T02:14:17.536Z,98908.25
2019-05-20T02:17:19.538Z,98904.98
2019-05-20T02:20:21.523Z,98898.08
2019-05-20T02:23:23.741Z,98898.08
2019-05-20T02:26:25.828Z,98894.07
2019-05-20T02:29:27.914Z,98892.47
2019-05-20T02:32:31.154Z,98881.69
2019-05-20T02:35:33.083Z,98875.23
2019-05-20T02:38:34.954Z,98863.55
2019-05-20T02:41:36.852Z,98861.73
2019-05-20T02:44:38.875Z,98854.02
2019-05-20T02:47:40.822Z,98847.86
2019-05-20T02:50:42.836Z,98850.92
2019-05-20T02:53:44.698Z,98854.39
2019-05-20T02:56:46.659Z,98851.15
2019-05-20T02:59:48.629Z,98851.34
2019-05-20T03:02:50.630Z,98861.22
2019-05-20T03:05:52.592Z,98854.02
2019-05-20T03:08:54.510Z,98856.97
2019-05-20T03:11:56.387Z,98869.03
2019-05-20T03:14:58.342Z,98865.30
2019-05-20T03:18:00.221Z,98867.74
2019-05-20T03:21:02.231Z,98858.34
2019-05-20T03:24:04.155Z,98843.98
2019-05-20T03:27:06.220Z,98831.65
2019-05-20T03:30:09.322Z,98828.59
2019-05-20T03:33:11.313Z,98817.16
2019-05-20T03:36:13.261Z,98822.04
2019-05-20T03:39:15.228Z,98833.22
2019-05-20T03:42:17.152Z,98833.57
2019-05-20T03:45:19.191Z,98833.31
2019-05-20T03:48:21.109Z,98838.08
2019-05-20T03:51:23.116Z,98824.91
2019-05-20T03:54:25.041Z,98828.98
2019-05-20T03:57:28.119Z,98825.20
2019-05-20T04:00:45.218Z,98817.75
2019-05-20T04:03:48.306Z,98812.67
2019-05-20T04:06:50.427Z,98813.59
2019-05-20T04:09:52.346Z,98821.05
2019-05-20T04:12:54.392Z,98827.36
2019-05-20T04:15:56.352Z,98826.47
2019-05-20T04:18:58.389Z,98827.00
2019-05-20T04:22:00.486Z,98825.48
2019-05-20T04:25:04.515Z,98822.95
2019-05-20T04:28:06.687Z,98820.13
2019-05-20T04:31:08.664Z,98814.77
2019-05-20T04:34:10.612Z,98816.28
2019-05-20T04:37:12.615Z,98810.36
2019-05-20T04:40:14.711Z,98810.52
2019-05-20T04:43:16.721Z,98791.85
2019-05-20T04:46:18.758Z,98787.02
2019-05-20T04:49:20.701Z,98781.60
2019-05-20T04:52:22.830Z,98769.52
2019-05-20T04:55:24.868Z,98745.70
2019-05-20T04:58:26.914Z,98746.50
2019-05-20T05:01:29.445Z,98748.83
2019-05-20T05:04:31.442Z,98742.31
2019-05-20T05:07:33.342Z,98741.52
2019-05-20T05:10:35.315Z,98746.84
2019-05-20T05:13:37.269Z,98753.16
2019-05-20T05:16:39.279Z,98757.91
2019-05-20T05:19:41.341Z,98766.42
2019-05-20T05:22:43.364Z,98763.80
2019-05-20T05:25:45.264Z,98764.53
2019-05-20T05:28:47.478Z,98761.39
2019-05-20T05:31:49.390Z,98757.77
2019-05-20T05:34:51.392Z,98759.95
2019-05-20T05:37:54.434Z,98760.36
2019-05-20T05:40:56.526Z,98752.74
2019-05-20T05:43:58.541Z,98754.12
2019-05-20T05:47:00.623Z,98761.80
2019-05-20T05:50:06.999Z,98768.52
2019-05-20T05:53:08.969Z,98760.18
2019-05-20T05:56:10.970Z,98744.95
2019-05-20T05:59:12.934Z,98754.32
2019-05-20T06:02:15.003Z,98760.79
2019-05-20T06:05:16.902Z,98739.03
2019-05-20T06:08:19.074Z,98721.73
2019-05-20T06:11:21.186Z,98715.84
2019-05-20T06:14:23.190Z,98715.82
2019-05-20T06:17:25.189Z,98719.02
2019-05-20T06:20:27.162Z,98696.25
2019-05-20T06:23:29.134Z,98689.76
2019-05-20T06:26:31.063Z,98689.05
2019-05-20T06:29:33.269Z,98694.62
2019-05-20T06:32:35.238Z,98710.21
2019-05-20T06:35:37.347Z,98715.03
2019-05-20T06:38:41.344Z,98716.98
2019-05-20T06:41:43.370Z,98716.78
2019-05-20T06:44:52.869Z,98737.82
2019-05-20T06:47:49.308Z,98726.06
2019-05-20T06:50:51.259Z,98712.70
2019-05-20T06:53:53.229Z,98707.00
2019-05-20T06:56:55.292Z,98698.32
2019-05-20T06:59:57.377Z,98696.92
2019-05-20T07:03:00.312Z,98700.08
2019-05-20T07:06:02.270Z,98699.77
2019-05-20T07:09:05.510Z,98700.05
2019-05-20T07:12:07.439Z,98706.62
2019-05-20T07:15:09.500Z,98710.77
2019-05-20T07:18:11.726Z,98717.47
2019-05-20T07:21:13.800Z,98711.45
2019-05-20T07:24:15.739Z,98708.91
2019-05-20T07:27:18.086Z,98714.45
2019-05-20T07:30:20.299Z,98716.56
2019-05-20T07:33:22.231Z,98710.48
2019-05-20T07:36:24.186Z,98716.61
2019-05-20T07:39:26.153Z,98731.33
2019-05-20T07:42:28.152Z,98747.82
2019-05-20T07:45:32.567Z,98752.82
2019-05-20T07:48:34.720Z,98750.97
2019-05-20T07:51:37.800Z,98742.77
2019-05-20T07:54:40.358Z,98737.21
2019-05-20T07:57:44.025Z,98729.80
2019-05-20T08:00:45.961Z,98725.35
2019-05-20T08:03:47.963Z,98717.77
2019-05-20T08:06:49.940Z,98718.37
2019-05-20T08:09:51.826Z,98714.44
2019-05-20T08:12:53.792Z,98716.23
2019-05-20T08:15:55.746Z,98715.41
2019-05-20T08:18:57.728Z,98715.77
2019-05-20T08:21:59.766Z,98708.59
2019-05-20T08:25:03.433Z,98713.05
2019-05-20T08:28:05.388Z,98708.53
2019-05-20T08:31:07.342Z,98706.63
2019-05-20T08:34:09.384Z,98689.77
2019-05-20T08:37:12.398Z,98689.77
2019-05-20T08:40:14.539Z,98691.17
2019-05-20T08:43:16.542Z,98715.42
2019-05-20T08:46:18.625Z,98729.92
2019-05-20T08:49:20.617Z,98717.02
2019-05-20T08:52:22.628Z,98717.39
2019-05-20T08:55:24.574Z,98721.59
2019-05-20T08:58:26.550Z,98751.02
2019-05-20T09:01:28.474Z,98751.02
2019-05-20T09:04:30.403Z,98744.75
2019-05-20T09:07:32.392Z,98732.22
2019-05-20T09:10:34.449Z,98736.23
2019-05-20T09:13:36.471Z,98746.24
2019-05-20T09:19:40.256Z,98758.39
2019-05-20T09:22:42.250Z,98761.06
2019-05-20T09:25:44.239Z,98758.89
2019-05-20T09:28:46.299Z,98767.97
2019-05-20T09:31:48.522Z,98770.14
2019-05-20T09:34:50.543Z,98764.17
2019-05-20T09:37:52.653Z,98774.41
2019-05-20T09:40:54.629Z,98774.88
2019-05-20T09:43:56.620Z,98784.46
2019-05-20T09:46:58.559Z,98771.66
2019-05-20T09:50:00.519Z,98776.52
2019-05-20T09:53:06.496Z,98772.16
2019-05-20T09:56:06.423Z,98764.95
2019-05-20T09:59:08.400Z,98768.37
2019-05-20T10:02:10.348Z,98767.75
2019-05-20T10:05:12.260Z,98778.62
2019-05-20T10:08:14.232Z,98774.40
2019-05-20T10:11:16.302Z,98778.39
2019-05-20T10:14:18.268Z,98784.02
2019-05-20T10:17:20.330Z,98781.90
2019-05-20T10:20:22.372Z,98778.35
2019-05-20T10:23:24.330Z,98776.34
2019-05-20T10:26:26.314Z,98774.33
2019-05-20T10:29:28.393Z,98784.45
2019-05-20T10:32:30.339Z,98782.25
2019-05-20T10:35:32.314Z,98794.17
2019-05-20T10:38:34.295Z,98795.20
2019-05-20T10:41:36.262Z,98805.80
2019-05-20T10:44:41.723Z,98802.74
2019-05-20T10:47:42.155Z,98799.33
2019-05-20T10:50:44.237Z,98802.83
2019-05-20T10:53:46.261Z,98808.18
2019-05-20T10:56:48.392Z,98813.54
2019-05-20T10:59:50.360Z,98831.73
2019-05-20T11:02:53.312Z,98836.70
2019-05-20T11:05:55.276Z,98847.16
2019-05-20T11:09:11.710Z,98853.97
2019-05-20T11:12:01.070Z,98844.88
2019-05-20T11:15:06.077Z,98849.75
2019-05-20T11:18:08.076Z,98851.72
2019-05-20T11:21:10.036Z,98851.70
2019-05-20T11:24:12.015Z,98853.40
2019-05-20T11:27:13.948Z,98866.09
2019-05-20T11:30:16.001Z,98865.51
2019-05-20T11:33:17.913Z,98867.08
2019-05-20T11:36:21.016Z,98868.15
2019-05-20T11:39:33.468Z,98875.73
2019-05-20T11:42:26.871Z,98875.16
2019-05-20T11:45:28.858Z,98877.80
2019-05-20T11:48:30.811Z,98867.59
2019-05-20T11:51:32.763Z,98873.20
2019-05-20T11:54:34.778Z,98888.62
2019-05-20T11:57:36.713Z,98889.81
2019-05-20T12:00:38.782Z,98907.26
2019-05-20T12:03:40.726Z,98893.45
2019-05-20T12:06:42.756Z,98900.67
2019-05-20T12:09:49.516Z,98899.25
2019-05-20T12:12:48.542Z,98904.48
2019-05-20T12:15:50.586Z,98904.55
2019-05-20T12:18:52.598Z,98917.61
2019-05-20T12:21:54.569Z,98909.62
2019-05-20T12:24:56.602Z,98908.14
2019-05-20T12:27:58.505Z,98905.54
2019-05-20T12:31:00.438Z,98897.38
2019-05-20T12:34:02.575Z,98901.00
2019-05-20T12:37:04.470Z,98898.06
2019-05-20T12:40:08.097Z,98903.34
2019-05-20T12:43:10.648Z,98895.30
2019-05-20T12:46:12.713Z,98896.63
2019-05-20T12:49:14.920Z,98898.17
2019-05-20T12:52:16.936Z,98902.47
2019-05-20T12:55:18.988Z,98899.93
2019-05-20T12:58:21.029Z,98897.53
2019-05-20T13:01:22.949Z,98894.98
2019-05-20T13:04:25.005Z,98902.23
2019-05-20T13:07:27.022Z,98890.63
2019-05-20T13:10:32.048Z,98892.85
2019-05-20T13:13:34.725Z,98893.81
2019-05-20T13:16:36.673Z,98897.63
2019-05-20T13:19:38.642Z,98902.91
2019-05-20T13:22:40.634Z,98909.55
2019-05-20T13:25:42.596Z,98912.53
2019-05-20T13:28:44.622Z,98904.94
2019-05-20T13:31:46.505Z,98908.39
2019-05-20T13:34:48.559Z,98909.02
2019-05-20T13:37:50.548Z,98912.19
2019-05-20T13:40:52.477Z,98900.91
2019-05-20T13:43:54.686Z,98903.34
2019-05-20T13:46:56.636Z,98905.97
2019-05-20T13:49:59.971Z,98894.88
2019-05-20T13:53:02.120Z,98898.89
2019-05-20T13:56:04.165Z,98891.80
2019-05-20T13:59:06.267Z,98894.31
2019-05-20T14:02:08.314Z,98883.01
2019-05-20T14:05:10.471Z,98870.55
2019-05-20T14:08:12.643Z,98864.59
2019-05-20T14:11:14.637Z,98854.88
2019-05-20T14:14:16.601Z,98849.84
2019-05-20T14:17:18.637Z,98854.07
2019-05-20T14:20:20.637Z,98836.32
2019-05-20T14:23:22.595Z,98848.95
2019-05-20T14:26:24.601Z,98842.13
2019-05-20T14:29:26.910Z,98839.52
2019-05-20T14:32:28.926Z,98838.11
2019-05-20T14:35:31.024Z,98851.33
2019-05-20T14:38:33.035Z,98850.74
2019-05-20T14:41:34.962Z,98851.72
2019-05-20T14:44:37.278Z,98854.69
2019-05-20T14:47:39.235Z,98850.78
2019-05-20T14:50:42.332Z,98858.05
2019-05-20T14:53:44.316Z,98848.91
2019-05-20T14:56:47.957Z,98839.38
2019-05-20T14:59:50.035Z,98839.06
2019-05-20T15:02:52.114Z,98833.20
2019-05-20T15:05:54.191Z,98844.41
2019-05-20T15:08:56.302Z,98852.17
2019-05-20T15:11:58.317Z,98846.23
2019-05-20T15:15:00.357Z,98847.75
2019-05-20T15:18:02.299Z,98856.53
2019-05-20T15:21:05.303Z,98856.18
2019-05-20T15:24:08.544Z,98853.05
2019-05-20T15:27:10.643Z,98850.16
2019-05-20T15:30:12.841Z,98848.12
2019-05-20T15:33:14.837Z,98853.55
2019-05-20T15:36:16.944Z,98853.47
2019-05-20T15:39:18.896Z,98853.47
2019-05-20T15:42:20.854Z,98843.44
2019-05-20T15:45:22.898Z,98845.38
2019-05-20T15:48:24.958Z,98841.98
2019-05-20T15:51:27.021Z,98842.27
2019-05-20T15:54:29.137Z,98840.56
2019-05-20T15:57:31.104Z,98837.60
2019-05-20T16:00:34.293Z,98855.59
2019-05-20T16:03:39.706Z,98856.91
2019-05-20T16:06:41.702Z,98852.88
2019-05-20T16:09:44.147Z,98855.00
2019-05-20T16:12:46.046Z,98862.16
2019-05-20T16:15:48.101Z,98869.48
2019-05-20T16:18:51.581Z,98868.30
2019-05-20T16:21:54.821Z,98864.56
2019-05-20T16:24:56.742Z,98868.00
2019-05-20T16:27:58.696Z,98870.15
2019-05-20T16:31:00.656Z,98880.30
2019-05-20T16:34:02.684Z,98880.01
2019-05-20T16:37:04.752Z,98872.03
2019-05-20T16:40:07.923Z,98874.05
2019-05-20T16:43:10.026Z,98873.08
2019-05-20T16:46:12.173Z,98875.90
2019-05-20T16:49:14.205Z,98874.30
2019-05-20T16:52:17.598Z,98866.50
2019-05-20T16:55:19.552Z,98867.23
2019-05-20T16:58:21.692Z,98863.88
2019-05-20T17:01:23.771Z,98863.55
2019-05-20T17:04:26.104Z,98862.73
2019-05-20T17:07:28.486Z,98864.44
2019-05-20T17:10:30.659Z,98864.66
2019-05-20T17:13:33.513Z,98860.74
2019-05-20T17:16:35.494Z,98849.44
2019-05-20T17:19:37.413Z,98849.44
2019-05-20T17:22:41.262Z,98848.38
2019-05-20T17:25:43.293Z,98843.25
2019-05-20T17:28:45.432Z,98847.26
2019-05-20T17:31:49.268Z,98841.32
2019-05-20T17:34:51.625Z,98841.32
2019-05-20T17:37:55.516Z,98862.85
2019-05-20T17:40:57.573Z,98844.32
2019-05-20T17:43:59.514Z,98848.62
2019-05-20T17:47:01.501Z,98849.80
2019-05-20T17:50:05.821Z,98855.64
2019-05-20T17:53:07.911Z,98849.28
2019-05-20T17:56:13.090Z,98847.94
2019-05-20T17:59:15.439Z,98846.86
2019-05-20T18:02:17.449Z,98845.71
2019-05-20T18:05:19.520Z,98842.58
2019-05-20T18:08:26.033Z,98846.42
2019-05-20T18:11:28.162Z,98856.48
2019-05-20T18:14:30.654Z,98851.62
2019-05-20T18:17:33.778Z,98845.45
2019-05-20T18:20:35.708Z,98853.65
2019-05-20T18:23:38.009Z,98862.31
2019-05-20T18:26:39.972Z,98865.02
2019-05-20T18:29:41.956Z,98871.83
2019-05-20T18:32:44.369Z,98888.05
2019-05-20T18:35:46.518Z,98891.05
2019-05-20T18:38:49.664Z,98902.77
2019-05-20T18:41:53.979Z,98912.63
2019-05-20T18:44:57.106Z,98910.99
2019-05-20T18:47:59.195Z,98915.01
2019-05-20T18:51:01.464Z,98915.19
2019-05-20T18:54:03.834Z,98912.08
2019-05-20T18:57:07.613Z,98918.55
2019-05-20T19:00:10.873Z,98925.79
2019-05-20T19:03:13.901Z,98925.79
2019-05-20T19:06:17.701Z,98929.58
2019-05-20T19:09:19.745Z,98928.56
2019-05-20T19:12:21.834Z,98923.72
2019-05-20T19:15:23.854Z,98931.28
2019-05-20T19:18:29.751Z,98927.89
2019-05-20T19:21:31.766Z,98929.25
2019-05-20T19:24:36.404Z,98916.13
2019-05-20T19:27:38.474Z,98917.05
2019-05-20T19:30:40.402Z,98913.93
2019-05-20T19:33:42.427Z,98910.48
2019-05-20T19:36:45.532Z,98903.08
2019-05-20T19:39:49.465Z,98893.82
2019-05-20T19:42:52.224Z,98889.45
2019-05-20T19:45:55.229Z,98890.83
2019-05-20T19:48:57.271Z,98889.66
2019-05-20T19:51:59.300Z,98892.88
2019-05-20T19:55:01.448Z,98902.09
2019-05-20T19:58:06.441Z,98901.65
2019-05-20T20:01:08.416Z,98900.95
2019-05-20T20:04:10.406Z,98894.03
2019-05-20T20:07:12.978Z,98882.96
2019-05-20T20:10:16.680Z,98885.04
2019-05-20T20:13:21.280Z,98883.91
2019-05-20T20:16:24.476Z,98888.86
2019-05-20T20:19:31.241Z,98890.02
2019-05-20T20:22:33.239Z,98891.62
2019-05-20T20:25:36.607Z,98887.14
2019-05-20T20:28:40.036Z,98881.35
2019-05-20T20:31:43.399Z,98889.45
2019-05-20T20:34:47.013Z,98882.05
2019-05-20T20:37:48.996Z,98879.28
2019-05-20T20:40:52.731Z,98882.05
2019-05-20T20:43:54.778Z,98887.59
2019-05-20T20:46:56.826Z,98894.98
2019-05-20T20:49:58.883Z,98898.23
2019-05-20T20:53:00.794Z,98905.95
2019-05-20T20:56:04.602Z,98906.42
2019-05-20T20:59:06.648Z,98904.70
2019-05-20T21:02:08.684Z,98909.53
2019-05-20T21:05:11.564Z,98908.15
2019-05-20T21:08:13.599Z,98910.08
2019-05-20T21:11:16.186Z,98910.86
2019-05-20T21:14:18.132Z,98914.71
2019-05-20T21:17:20.084Z,98918.16
2019-05-20T21:20:22.093Z,98914.00
2019-05-20T21:23:25.687Z,98919.91
2019-05-20T21:26:27.762Z,98924.70
2019-05-20T21:29:32.428Z,98924.84
2019-05-20T21:32:33.583Z,98923.14
2019-05-20T21:35:35.550Z,98926.09
2019-05-20T21:38:37.510Z,98920.85
2019-05-20T21:41:39.592Z,98921.56
2019-05-20T21:44:41.499Z,98922.66
2019-05-20T21:47:44.785Z,98919.50
2019-05-20T21:50:47.142Z,98910.05
2019-05-20T21:53:49.176Z,98907.56
2019-05-20T21:56:51.049Z,98909.78
2019-05-20T21:59:54.038Z,98907.14
2019-05-20T22:02:57.176Z,98910.45
2019-05-20T22:05:59.220Z,98913.77
2019-05-20T22:09:04.607Z,98910.75
2019-05-20T22:12:06.624Z,98910.50
2019-05-20T22:15:08.628Z,98909.70
2019-05-20T22:18:10.661Z,98915.58
2019-05-20T22:21:14.402Z,98919.76
2019-05-20T22:24:16.427Z,98916.77
2019-05-20T22:27:18.383Z,98913.52
2019-05-20T22:30:20.425Z,98916.99
2019-05-20T22:33:22.378Z,98912.39
2019-05-20T22:36:24.386Z,98911.85
2019-05-20T22:39:26.268Z,98919.11
2019-05-20T22:42:28.319Z,98913.37
2019-05-20T22:45:31.956Z,98918.48
2019-05-20T22:48:33.905Z,98925.56
2019-05-20T22:51:35.884Z,98918.27
2019-05-20T22:54:37.889Z,98911.86
2019-05-20T22:57:39.778Z,98917.09
2019-05-20T23:00:41.782Z,98914.02
2019-05-20T23:03:55.662Z,98909.32
2019-05-20T23:06:47.674Z,98903.28
2019-05-20T23:09:49.667Z,98903.69
2019-05-20T23:12:51.616Z,98897.81
2019-05-20T23:15:55.689Z,98899.31
2019-05-20T23:18:57.386Z,98899.94
2019-05-20T23:21:59.340Z,98894.53
2019-05-20T23:25:01.278Z,98903.11
2019-05-20T23:28:04.388Z,98903.34
2019-05-20T23:31:06.339Z,98893.62
2019-05-20T23:34:12.879Z,98895.14
2019-05-20T23:37:12.117Z,98882.66
2019-05-20T23:40:13.985Z,98887.78
2019-05-20T23:43:16.123Z,98879.17
2019-05-20T23:46:18.388Z,98886.64
2019-05-20T23:49:20.394Z,98889.23
2019-05-20T23:52:22.301Z,98887.59
2019-05-20T23:55:24.854Z,98885.64
2019-05-20T23:58:26.810Z,98887.21
